createdAt,value
2022-10-11T00:00:46.679Z,5.97
2022-10-11T00:04:08.107Z,5.60
2022-10-11T00:07:29.249Z,6.20
2022-10-11T00:10:58.233Z,7.68
2022-10-11T00:14:19.423Z,5.20
2022-10-11T00:17:42.571Z,7.00
2022-10-11T00:21:06.204Z,5.25
2022-10-11T00:24:27.485Z,6.78
2022-10-11T00:27:48.858Z,8.75
2022-10-11T00:31:12.135Z,8.30
2022-10-11T00:34:35.342Z,7.57
2022-10-11T00:37:57.665Z,4.20
2022-10-11T00:41:19.495Z,4.18
2022-10-11T00:44:43.945Z,4.13
2022-10-11T00:48:12.848Z,6.80
2022-10-11T00:51:44.331Z,8.43
2022-10-11T00:55:08.960Z,5.30
2022-10-11T00:58:30.868Z,4.43
2022-10-11T01:01:52.319Z,6.20
2022-10-11T01:05:32.229Z,4.95
2022-10-11T01:08:55.574Z,5.15
2022-10-11T01:12:20.493Z,7.03
2022-10-11T01:15:48.667Z,7.47
2022-10-11T01:19:30.078Z,5.00
2022-10-11T01:23:21.568Z,7.13
2022-10-11T01:27:05.561Z,3.92
2022-10-11T01:30:30.320Z,6.63
2022-10-11T01:33:55.718Z,8.45
2022-10-11T01:37:24.814Z,8.38
2022-10-11T01:40:50.301Z,4.93
2022-10-11T01:44:13.735Z,9.32
2022-10-11T01:47:36.758Z,4.63
2022-10-11T01:51:01.772Z,12.15
2022-10-11T01:55:08.132Z,7.70
2022-10-11T01:58:39.307Z,6.63
2022-10-11T02:02:11.762Z,5.68
2022-10-11T02:05:42.223Z,8.10
2022-10-11T02:09:10.243Z,5.30
2022-10-11T02:12:38.741Z,6.90
2022-10-11T02:16:03.640Z,4.75
2022-10-11T02:19:31.217Z,4.55
2022-10-11T02:23:00.819Z,8.38
2022-10-11T02:26:24.633Z,7.50
2022-10-11T02:29:48.489Z,6.17
2022-10-11T02:33:14.391Z,9.10
2022-10-11T02:36:44.069Z,5.43
2022-10-11T02:40:12.244Z,6.27
2022-10-11T02:43:38.627Z,6.10
2022-10-11T02:50:23.945Z,5.73
2022-10-11T02:53:45.698Z,7.23
2022-10-11T02:57:08.365Z,7.50
2022-10-11T03:00:29.734Z,8.73
2022-10-11T03:03:51.690Z,7.67
2022-10-11T03:07:13.799Z,8.20
2022-10-11T03:10:35.271Z,6.17
2022-10-11T03:13:58.209Z,9.70
2022-10-11T03:17:35.597Z,9.70
2022-10-11T03:20:58.173Z,10.00
2022-10-11T03:24:19.925Z,8.93
2022-10-11T03:27:41.198Z,9.60
2022-10-11T03:31:04.490Z,10.20
2022-10-11T03:34:26.007Z,6.80
2022-10-11T03:37:47.615Z,8.53
2022-10-11T03:41:09.566Z,9.43
2022-10-11T03:44:31.225Z,7.40
2022-10-11T03:47:53.939Z,5.37
2022-10-11T03:51:16.094Z,11.53
2022-10-11T03:54:37.431Z,10.67
2022-10-11T03:57:58.789Z,11.30
2022-10-11T04:01:20.248Z,13.27
2022-10-11T04:04:43.450Z,15.67
2022-10-11T04:08:08.503Z,11.20
2022-10-11T04:11:33.143Z,12.33
2022-10-11T04:14:54.390Z,10.77
2022-10-11T04:18:16.181Z,12.97
2022-10-11T04:21:38.801Z,10.40
2022-10-11T04:25:00.646Z,11.17
2022-10-11T04:28:22.031Z,12.93
2022-10-11T04:31:43.700Z,13.63
2022-10-11T04:35:05.800Z,12.50
2022-10-11T04:38:28.710Z,13.17
2022-10-11T04:41:50.378Z,13.67
2022-10-11T04:45:11.891Z,16.27
2022-10-11T04:48:33.426Z,17.23
2022-10-11T04:51:54.801Z,12.83
2022-10-11T04:55:17.846Z,15.03
2022-10-11T04:58:41.531Z,15.47
2022-10-11T05:02:03.134Z,13.47
2022-10-11T05:05:25.192Z,15.40
2022-10-11T05:08:46.754Z,13.33
2022-10-11T05:12:10.003Z,17.33
2022-10-11T05:15:31.305Z,19.83
2022-10-11T05:18:53.334Z,15.17
2022-10-11T05:22:14.644Z,14.80
2022-10-11T05:25:36.050Z,18.13
2022-10-11T05:28:59.135Z,16.67
2022-10-11T05:32:20.765Z,23.77
2022-10-11T05:35:42.652Z,19.10
2022-10-11T05:39:04.194Z,19.33
2022-10-11T05:42:26.056Z,17.00
2022-10-11T05:45:49.159Z,16.37
2022-10-11T05:49:10.947Z,13.00
2022-10-11T05:52:32.267Z,15.43
2022-10-11T05:55:53.627Z,14.80
2022-10-11T05:59:15.215Z,17.87
2022-10-11T06:02:38.258Z,15.90
2022-10-11T06:06:03.416Z,14.00
2022-10-11T06:09:24.934Z,15.07
2022-10-11T06:12:46.389Z,12.63
2022-10-11T06:16:08.401Z,17.63
2022-10-11T06:19:31.593Z,16.23
2022-10-11T06:22:53.058Z,16.83
2022-10-11T06:26:14.903Z,12.53
2022-10-11T06:29:37.012Z,21.23
2022-10-11T06:33:02.395Z,16.37
2022-10-11T06:36:27.708Z,18.73
2022-10-11T06:39:48.963Z,11.27
2022-10-11T06:43:10.792Z,17.13
2022-10-11T06:46:33.339Z,13.73
2022-10-11T06:49:54.819Z,17.53
2022-10-11T06:53:17.885Z,15.87
2022-10-11T06:56:39.103Z,21.07
2022-10-11T07:00:00.945Z,21.27
2022-10-11T07:03:22.775Z,17.00
2022-10-11T07:06:44.046Z,16.03
2022-10-11T07:10:08.557Z,14.30
2022-10-11T07:13:30.175Z,14.07
2022-10-11T07:16:51.501Z,12.47
2022-10-11T07:20:13.600Z,16.70
2022-10-11T07:23:35.910Z,12.57
2022-10-11T07:26:58.913Z,16.37
2022-10-11T07:30:20.211Z,17.57
2022-10-11T07:33:42.124Z,14.20
2022-10-11T07:37:03.574Z,18.53
2022-10-11T07:40:25.388Z,16.63
2022-10-11T07:43:49.786Z,17.40
2022-10-11T07:47:11.502Z,11.10
2022-10-11T07:50:34.577Z,15.03
2022-10-11T07:53:58.116Z,20.47
2022-10-11T07:57:19.255Z,17.23
2022-10-11T08:00:42.726Z,11.67
2022-10-11T08:04:04.433Z,14.20
2022-10-11T08:07:26.294Z,17.33
2022-10-11T08:10:47.863Z,14.17
2022-10-11T08:14:11.297Z,13.27
2022-10-11T08:17:33.957Z,14.73
2022-10-11T08:20:55.250Z,13.53
2022-10-11T08:24:20.651Z,15.23
2022-10-11T08:27:41.908Z,13.17
2022-10-11T08:31:04.217Z,10.27
2022-10-11T08:34:27.029Z,14.57
2022-10-11T08:37:49.008Z,14.43
2022-10-11T08:41:30.317Z,14.57
2022-10-11T08:45:10.464Z,9.53
2022-10-11T08:48:36.422Z,8.73
2022-10-11T08:52:04.440Z,11.20
2022-10-11T08:55:33.263Z,10.13
2022-10-11T08:59:00.378Z,11.60
2022-10-11T09:03:06.518Z,8.52
2022-10-11T09:06:42.567Z,11.38
2022-10-11T09:10:22.975Z,17.73
2022-10-11T09:14:14.625Z,12.27
2022-10-11T09:17:48.612Z,12.07
2022-10-11T09:21:20.837Z,8.70
2022-10-11T09:24:58.875Z,10.57
2022-10-11T09:28:29.142Z,9.25
2022-10-11T09:31:54.978Z,11.20
2022-10-11T09:35:19.583Z,19.35
2022-10-11T09:38:47.190Z,9.32
2022-10-11T09:42:10.045Z,9.95
2022-10-11T09:45:32.825Z,10.63
2022-10-11T09:48:56.986Z,11.93
2022-10-11T09:52:20.758Z,13.23
2022-10-11T09:55:51.807Z,10.95
2022-10-11T09:59:26.713Z,16.65
2022-10-11T10:02:51.173Z,9.13
2022-10-11T10:06:17.439Z,13.90
2022-10-11T10:09:38.979Z,11.00
2022-10-11T10:13:02.901Z,10.60
2022-10-11T10:16:27.257Z,13.45
2022-10-11T10:19:52.691Z,12.40
2022-10-11T10:23:22.792Z,12.25
2022-10-11T10:27:20.999Z,10.18
2022-10-11T10:30:52.835Z,9.93
2022-10-11T10:34:19.274Z,11.90
2022-10-11T10:37:44.993Z,16.88
2022-10-11T10:41:10.515Z,9.13
2022-10-11T10:44:33.959Z,9.48
2022-10-11T10:48:15.345Z,18.55
2022-10-11T10:51:47.752Z,18.13
2022-10-11T10:55:27.604Z,12.75
2022-10-11T10:59:05.461Z,10.32
2022-10-11T11:02:40.583Z,10.60
2022-10-11T11:06:06.129Z,12.00
2022-10-11T11:09:41.849Z,11.48
2022-10-11T11:13:18.891Z,11.80
2022-10-11T11:16:46.213Z,9.07
2022-10-11T11:20:25.719Z,11.18
2022-10-11T11:23:54.281Z,7.82
2022-10-11T11:27:27.824Z,11.43
2022-10-11T11:30:58.943Z,9.93
2022-10-11T11:34:25.017Z,10.15
2022-10-11T11:37:51.089Z,10.70
2022-10-11T11:41:21.834Z,8.05
2022-10-11T11:44:47.954Z,9.82
2022-10-11T11:48:16.930Z,7.13
2022-10-11T11:51:42.472Z,8.93
2022-10-11T11:55:12.202Z,6.25
2022-10-11T11:58:41.844Z,13.13
2022-10-11T12:02:22.206Z,11.50
2022-10-11T12:06:20.500Z,11.90
2022-10-11T12:09:44.563Z,9.70
2022-10-11T12:13:19.024Z,8.95
2022-10-11T12:17:15.650Z,11.07
2022-10-11T12:20:40.833Z,7.22
2022-10-11T12:24:10.541Z,12.77
2022-10-11T12:27:38.207Z,10.93
2022-10-11T12:31:07.964Z,10.43
2022-10-11T12:34:35.786Z,7.75
2022-10-11T12:38:14.448Z,7.20
2022-10-11T12:41:53.642Z,6.63
2022-10-11T12:45:31.201Z,10.95
2022-10-11T12:49:01.610Z,12.20
2022-10-11T12:52:29.893Z,11.40
2022-10-11T12:55:59.318Z,11.90
2022-10-11T12:59:24.142Z,11.05
2022-10-11T13:02:45.869Z,8.90
2022-10-11T13:06:18.390Z,10.60
2022-10-11T13:09:46.584Z,7.80
2022-10-11T13:13:21.708Z,5.68
2022-10-11T13:16:50.868Z,6.50
2022-10-11T13:20:19.555Z,6.40
2022-10-11T13:23:42.699Z,9.43
2022-10-11T13:27:06.097Z,7.90
2022-10-11T13:30:31.589Z,9.27
2022-10-11T13:33:56.086Z,9.13
2022-10-11T13:37:19.523Z,8.57
2022-10-11T13:40:42.198Z,9.23
2022-10-11T13:44:04.609Z,7.32
2022-10-11T13:47:30.454Z,12.45
2022-10-11T13:51:08.689Z,5.90
2022-10-11T13:54:58.840Z,7.10
2022-10-11T13:58:28.469Z,10.98
2022-10-11T14:01:54.166Z,4.93
2022-10-11T14:05:24.636Z,7.32
2022-10-11T14:08:50.191Z,7.78
2022-10-11T14:12:33.544Z,7.18
2022-10-11T14:16:09.007Z,6.72
2022-10-11T14:19:30.628Z,8.35
2022-10-11T14:22:52.982Z,6.13
2022-10-11T14:26:18.747Z,9.63
2022-10-11T14:30:00.256Z,8.65
2022-10-11T14:33:27.756Z,6.82
2022-10-11T14:36:50.428Z,11.57
2022-10-11T14:40:15.118Z,7.13
2022-10-11T14:43:36.621Z,8.27
2022-10-11T14:46:57.953Z,9.10
2022-10-11T14:50:29.558Z,10.65
2022-10-11T14:53:51.468Z,11.20
2022-10-11T14:57:13.498Z,12.15
2022-10-11T15:00:35.611Z,9.82
2022-10-11T15:03:57.359Z,8.10
2022-10-11T15:07:20.523Z,9.48
2022-10-11T15:10:42.441Z,9.27
2022-10-11T15:14:03.866Z,8.68
2022-10-11T15:17:25.441Z,11.48
2022-10-11T15:20:47.795Z,8.27
2022-10-11T15:24:11.029Z,11.32
2022-10-11T15:27:32.310Z,13.85
2022-10-11T15:30:53.957Z,13.40
2022-10-11T15:34:15.441Z,9.43
2022-10-11T15:37:37.542Z,10.73
2022-10-11T15:41:00.679Z,12.80
2022-10-11T15:44:21.995Z,7.60
2022-10-11T15:47:43.888Z,14.68
2022-10-11T15:51:05.301Z,8.80
2022-10-11T15:54:26.804Z,7.10
2022-10-11T15:57:49.387Z,10.15
2022-10-11T16:01:14.343Z,8.25
2022-10-11T16:04:36.139Z,12.38
2022-10-11T16:07:57.263Z,11.38
2022-10-11T16:11:18.955Z,14.27
2022-10-11T16:14:46.280Z,16.55
2022-10-11T16:18:11.086Z,14.30
2022-10-11T16:21:32.339Z,16.70
2022-10-11T16:24:54.354Z,14.45
2022-10-11T16:28:15.952Z,9.30
2022-10-11T16:31:38.911Z,13.23
2022-10-11T16:35:00.578Z,11.60
2022-10-11T16:38:22.282Z,14.55
2022-10-11T16:41:44.521Z,12.02
2022-10-11T16:45:08.241Z,12.88
2022-10-11T16:48:31.205Z,8.23
2022-10-11T16:51:54.891Z,10.35
2022-10-11T16:55:16.632Z,9.13
2022-10-11T16:58:38.550Z,11.30
2022-10-11T17:02:00.029Z,13.55
2022-10-11T17:05:22.727Z,11.00
2022-10-11T17:08:44.600Z,10.90
2022-10-11T17:12:07.035Z,8.75
2022-10-11T17:15:30.056Z,12.65
2022-10-11T17:18:51.651Z,9.80
2022-10-11T17:22:16.782Z,12.73
2022-10-11T17:25:42.682Z,11.63
2022-10-11T17:29:04.274Z,11.60
2022-10-11T17:32:25.555Z,11.52
2022-10-11T17:35:47.348Z,15.23
2022-10-11T17:39:14.639Z,11.25
2022-10-11T17:42:35.848Z,9.98
2022-10-11T17:45:58.207Z,11.80
2022-10-11T17:49:19.502Z,14.83
2022-10-11T17:52:41.403Z,10.93
2022-10-11T17:56:07.734Z,13.77
2022-10-11T17:59:30.614Z,15.60
2022-10-11T18:02:53.512Z,9.77
2022-10-11T18:06:16.760Z,10.37
2022-10-11T18:09:38.350Z,12.63
2022-10-11T18:13:05.742Z,12.90
2022-10-11T18:16:30.227Z,6.93
2022-10-11T18:19:51.652Z,13.00
2022-10-11T18:23:13.405Z,10.27
2022-10-11T18:26:35.095Z,9.57
2022-10-11T18:29:58.344Z,10.70
2022-10-11T18:33:19.865Z,14.70
2022-10-11T18:36:41.747Z,8.70
2022-10-11T18:40:03.738Z,14.83
2022-10-11T18:43:25.022Z,8.97
2022-10-11T18:46:48.386Z,5.17
2022-10-11T18:50:10.305Z,7.70
2022-10-11T18:53:31.891Z,8.77
2022-10-11T18:56:53.760Z,10.23
2022-10-11T19:00:38.965Z,12.10
2022-10-11T19:04:00.940Z,13.50
2022-10-11T19:07:23.738Z,16.30
2022-10-11T19:10:45.342Z,10.63
2022-10-11T19:14:09.872Z,13.60
2022-10-11T19:17:31.089Z,9.93
2022-10-11T19:20:53.643Z,15.27
2022-10-11T19:24:14.979Z,12.77
2022-10-11T19:27:36.224Z,9.70
2022-10-11T19:31:05.199Z,11.60
2022-10-11T19:34:28.635Z,8.20
2022-10-11T19:37:51.471Z,11.80
2022-10-11T19:41:14.071Z,11.37
2022-10-11T19:44:38.706Z,15.23
2022-10-11T19:48:01.170Z,12.67
2022-10-11T19:51:24.273Z,16.50
2022-10-11T19:54:47.097Z,10.97
2022-10-11T19:58:08.911Z,11.87
2022-10-11T20:01:32.188Z,13.40
2022-10-11T20:04:54.031Z,15.90
2022-10-11T20:08:15.624Z,13.40
2022-10-11T20:11:38.495Z,11.40
2022-10-11T20:14:59.737Z,12.00
2022-10-11T20:18:20.988Z,10.97
2022-10-11T20:21:42.416Z,12.73
2022-10-11T20:25:03.901Z,11.50
2022-10-11T20:28:28.064Z,12.33
2022-10-11T20:31:49.730Z,15.00
2022-10-11T20:35:11.652Z,8.83
2022-10-11T20:38:34.576Z,12.30
2022-10-11T20:41:56.175Z,17.10
2022-10-11T20:45:18.786Z,13.67
2022-10-11T20:48:41.153Z,9.90
2022-10-11T20:52:02.525Z,9.17
2022-10-11T20:55:24.163Z,10.40
2022-10-11T20:58:46.542Z,7.97
2022-10-11T21:02:15.371Z,14.97
2022-10-11T21:05:39.751Z,15.80
2022-10-11T21:09:01.816Z,13.27
2022-10-11T21:12:23.600Z,16.43
2022-10-11T21:15:44.921Z,22.60
2022-10-11T21:19:07.430Z,19.67
2022-10-11T21:22:28.596Z,15.17
2022-10-11T21:25:49.873Z,23.77
2022-10-11T21:29:11.078Z,25.40
2022-10-11T21:32:32.797Z,24.43
2022-10-11T21:35:55.626Z,16.90
2022-10-11T21:39:17.042Z,16.43
2022-10-11T21:42:38.818Z,12.20
2022-10-11T21:46:00.754Z,19.17
2022-10-11T21:49:22.068Z,13.23
2022-10-11T21:52:44.766Z,14.63
2022-10-11T21:56:06.738Z,11.97
2022-10-11T21:59:28.349Z,12.73
2022-10-11T22:02:49.430Z,11.07
2022-10-11T22:06:11.076Z,11.37
2022-10-11T22:09:34.972Z,9.03
2022-10-11T22:12:57.069Z,10.27
2022-10-11T22:16:18.457Z,8.83
2022-10-11T22:19:39.896Z,12.90
2022-10-11T22:23:01.279Z,7.97
2022-10-11T22:26:25.714Z,7.80
2022-10-11T22:29:47.211Z,10.40
2022-10-11T22:33:08.515Z,8.07
2022-10-11T22:36:30.897Z,9.77
2022-10-11T22:39:52.431Z,7.57
2022-10-11T22:43:15.093Z,11.67
2022-10-11T22:46:36.398Z,9.93
2022-10-11T22:49:57.543Z,9.20
2022-10-11T22:53:19.803Z,8.73
2022-10-11T22:56:41.469Z,8.87
2022-10-11T23:00:05.336Z,10.03
2022-10-11T23:03:26.856Z,15.43
2022-10-11T23:06:48.573Z,10.10
2022-10-11T23:10:10.636Z,7.67
2022-10-11T23:13:32.229Z,6.90
2022-10-11T23:16:54.957Z,11.30
2022-10-11T23:20:16.432Z,8.93
2022-10-11T23:23:39.601Z,12.10
2022-10-11T23:27:01.173Z,9.47
2022-10-11T23:30:22.309Z,16.13
2022-10-11T23:33:45.758Z,10.77
2022-10-11T23:37:07.215Z,12.13
2022-10-11T23:40:28.860Z,10.13
2022-10-11T23:43:50.152Z,9.60
2022-10-11T23:47:11.778Z,6.57
2022-10-11T23:50:34.330Z,9.50
2022-10-11T23:53:55.454Z,8.70
2022-10-11T23:57:16.677Z,8.13
